Time;durP1;ratioP1;P1;durP2;ratioP2;P2;SDS_P1;SDS_P2;PMS_P1;PMS_P2;Temp;Humidity;BMP_temperature;BMP_pressure;BME280_temperature;BME280_humidity;BME280_pressure;Samples;Min_cycle;Max_cycle;Signal;HPM_P1;HPM_P2
2022/10/24 03:00:31;;;;;;;0.80;0.57;;;20.10;52.80;;;;;;5796161;23;46050;-63
2022/10/24 03:02:56;;;;;;;0.90;0.60;;;20.10;52.80;;;;;;4826729;29;44894;-63
2022/10/24 03:05:22;;;;;;;0.63;0.63;;;20.10;52.90;;;;;;4821202;29;44977;-63
2022/10/24 03:07:47;;;;;;;2.95;0.82;;;20.10;52.80;;;;;;4853319;29;45222;-63
2022/10/24 03:10:13;;;;;;;1.30;0.70;;;20.10;52.80;;;;;;4854867;29;45247;-63
2022/10/24 03:12:39;;;;;;;1.20;0.70;;;20.10;52.80;;;;;;4824097;29;45211;-63
2022/10/24 03:15:05;;;;;;;3.97;1.05;;;20.10;52.80;;;;;;4856537;29;44701;-62
2022/10/24 03:17:30;;;;;;;1.40;0.68;;;20.10;52.80;;;;;;4828243;29;45211;-63
2022/10/24 03:19:56;;;;;;;1.20;0.55;;;20.10;52.80;;;;;;4842035;29;45537;-62
2022/10/24 03:22:21;;;;;;;0.73;0.50;;;20.10;52.80;;;;;;4853865;29;44988;-62
2022/10/24 03:24:47;;;;;;;1.73;0.60;;;20.10;52.80;;;;;;4822115;29;45046;-63
2022/10/24 03:27:13;;;;;;;4.05;0.80;;;20.10;52.80;;;;;;4834864;29;44989;-62
2022/10/24 03:29:38;;;;;;;1.13;0.75;;;20.10;52.80;;;;;;4835277;29;46161;-63
2022/10/24 03:32:05;;;;;;;1.67;0.68;;;20.10;52.80;;;;;;4846673;29;44928;-63
2022/10/24 03:34:30;;;;;;;1.10;0.80;;;20.10;52.80;;;;;;4834013;29;44941;-63
2022/10/24 03:36:56;;;;;;;3.58;0.73;;;20.10;52.80;;;;;;4823730;29;45431;-63
2022/10/24 03:39:21;;;;;;;2.05;0.80;;;20.10;52.80;;;;;;4854079;29;45228;-63
2022/10/24 03:41:47;;;;;;;0.70;0.60;;;20.10;52.80;;;;;;4829460;29;44986;-63
2022/10/24 03:44:12;;;;;;;0.88;0.70;;;20.10;52.70;;;;;;4822545;29;45095;-63
2022/10/24 03:46:38;;;;;;;1.00;0.70;;;20.10;52.80;;;;;;4839105;29;45039;-63
2022/10/24 03:49:04;;;;;;;1.67;0.85;;;20.10;52.80;;;;;;4852384;29;45136;-63
2022/10/24 03:51:29;;;;;;;0.65;0.65;;;20.10;52.80;;;;;;4821098;29;45408;-63
2022/10/24 03:53:55;;;;;;;1.35;0.80;;;20.10;52.80;;;;;;4852665;29;45245;-63
2022/10/24 03:56:20;;;;;;;0.82;0.70;;;20.10;52.80;;;;;;4841496;29;45217;-63
2022/10/24 03:58:46;;;;;;;1.27;0.95;;;20.10;52.70;;;;;;4839992;29;45242;-62
2022/10/24 04:01:16;;;;;;;1.33;0.90;;;20.10;52.70;;;;;;4830328;29;45179;-62
2022/10/24 04:03:45;;;;;;;1.95;0.75;;;20.10;52.70;;;;;;4835132;29;45058;-63
2022/10/24 04:06:11;;;;;;;0.80;0.65;;;20.10;52.70;;;;;;4836307;29;45262;-62
2022/10/24 04:08:36;;;;;;;1.10;0.55;;;20.10;52.70;;;;;;4824712;29;46712;-62
2022/10/24 04:11:02;;;;;;;2.53;0.70;;;20.10;52.70;;;;;;4836173;29;46091;-62
2022/10/24 04:13:27;;;;;;;1.08;0.80;;;20.10;52.70;;;;;;4837594;29;45385;-63
2022/10/24 04:15:53;;;;;;;2.78;0.70;;;20.10;52.70;;;;;;4836507;29;45473;-63
2022/10/24 04:18:19;;;;;;;1.05;0.63;;;20.10;52.70;;;;;;4834716;29;45349;-62
2022/10/24 04:20:44;;;;;;;0.60;0.50;;;20.10;52.70;;;;;;4838512;29;45167;-62
2022/10/24 04:23:10;;;;;;;1.10;0.85;;;20.10;52.70;;;;;;4837650;29;45341;-62
2022/10/24 04:25:35;;;;;;;1.17;0.63;;;20.10;52.70;;;;;;4836424;29;45139;-62
2022/10/24 04:28:01;;;;;;;1.73;0.80;;;20.10;52.70;;;;;;4831418;29;46499;-62
2022/10/24 04:30:28;;;;;;;1.48;0.70;;;20.10;52.70;;;;;;4829680;29;45078;-62
2022/10/24 04:32:55;;;;;;;0.98;0.60;;;20.10;52.70;;;;;;4832460;29;44998;-63
2022/10/24 04:35:20;;;;;;;1.00;0.50;;;20.10;52.70;;;;;;4831744;29;45225;-62
2022/10/24 04:37:46;;;;;;;1.33;0.55;;;20.10;52.80;;;;;;4830729;29;47996;-61
2022/10/24 04:40:12;;;;;;;0.93;0.60;;;20.10;52.80;;;;;;4835526;29;45037;-62
2022/10/24 04:42:37;;;;;;;2.13;0.63;;;20.10;52.80;;;;;;4835610;29;44845;-62
2022/10/24 04:45:03;;;;;;;1.08;0.70;;;20.10;53.30;;;;;;4832570;29;45578;-62
2022/10/24 04:47:28;;;;;;;0.60;0.60;;;20.10;52.70;;;;;;4843195;29;45037;-61
2022/10/24 04:49:54;;;;;;;1.08;0.70;;;20.10;52.70;;;;;;4836105;29;45338;-62
2022/10/24 04:52:20;;;;;;;1.80;0.85;;;20.10;52.70;;;;;;4833833;29;45212;-62
2022/10/24 04:54:45;;;;;;;1.80;0.88;;;20.10;52.70;;;;;;4845096;29;45123;-62
2022/10/24 04:57:11;;;;;;;1.25;0.50;;;20.10;52.70;;;;;;4834050;29;45049;-62
2022/10/24 04:59:36;;;;;;;1.17;0.75;;;20.10;52.70;;;;;;4840700;29;45015;-62
2022/10/24 05:02:02;;;;;;;1.05;0.73;;;20.10;52.70;;;;;;4848129;29;45035;-62
2022/10/24 05:04:27;;;;;;;1.42;0.60;;;20.10;52.70;;;;;;4842555;29;45079;-62
2022/10/24 05:06:53;;;;;;;1.52;0.55;;;20.10;52.80;;;;;;4864414;29;45425;-62
2022/10/24 05:09:18;;;;;;;0.43;0.40;;;20.10;52.80;;;;;;4860879;29;45255;-62
2022/10/24 05:11:44;;;;;;;0.98;0.70;;;20.10;52.70;;;;;;4840894;29;45172;-61
2022/10/24 05:14:09;;;;;;;0.60;0.60;;;20.10;52.70;;;;;;4844206;29;44744;-62
2022/10/24 05:16:35;;;;;;;1.77;0.85;;;20.10;52.70;;;;;;4847511;29;46519;-63
2022/10/24 05:19:01;;;;;;;0.40;0.40;;;20.10;52.70;;;;;;4809878;29;45126;-63
2022/10/24 05:21:26;;;;;;;1.55;0.60;;;20.10;52.70;;;;;;4838231;29;45275;-62
2022/10/24 05:23:52;;;;;;;0.90;0.50;;;20.10;52.80;;;;;;4856573;29;45058;-62
2022/10/24 05:26:18;;;;;;;1.60;0.70;;;20.10;52.70;;;;;;4855088;29;44944;-62
2022/10/24 05:28:43;;;;;;;1.25;0.70;;;20.10;52.80;;;;;;4837803;29;45323;-63
2022/10/24 05:31:09;;;;;;;1.73;0.85;;;20.10;52.80;;;;;;4832611;29;45037;-62
2022/10/24 05:33:34;;;;;;;0.65;0.52;;;20.10;52.70;;;;;;4841282;29;45085;-62
2022/10/24 05:36:00;;;;;;;1.83;0.88;;;20.10;52.80;;;;;;4841622;29;46127;-62
2022/10/24 05:38:25;;;;;;;1.25;0.50;;;20.10;52.70;;;;;;4841525;29;45182;-61
2022/10/24 05:40:51;;;;;;;1.33;0.60;;;20.10;52.80;;;;;;4856238;29;45137;-63
2022/10/24 05:43:17;;;;;;;0.73;0.70;;;20.10;52.80;;;;;;4838077;29;45121;-63
2022/10/24 05:45:42;;;;;;;0.90;0.75;;;20.10;52.70;;;;;;4819146;29;47214;-62
2022/10/24 05:48:08;;;;;;;0.77;0.77;;;20.00;52.70;;;;;;4835614;29;45585;-61
2022/10/24 05:50:34;;;;;;;1.92;0.85;;;20.10;52.80;;;;;;4843113;29;45127;-62
2022/10/24 05:53:00;;;;;;;0.68;0.45;;;20.00;52.70;;;;;;4844477;29;45910;-62
2022/10/24 05:55:25;;;;;;;2.33;0.88;;;20.10;52.70;;;;;;4825211;29;45449;-62
2022/10/24 05:57:51;;;;;;;1.20;0.70;;;20.00;52.70;;;;;;4853108;29;45141;-62
2022/10/24 06:00:16;;;;;;;0.95;0.60;;;20.10;52.80;;;;;;4822136;29;44980;-62
2022/10/24 06:02:42;;;;;;;1.00;0.77;;;20.10;52.80;;;;;;4843634;29;45363;-62
2022/10/24 06:05:08;;;;;;;1.13;0.50;;;20.00;52.70;;;;;;4842854;29;46230;-63
2022/10/24 06:07:34;;;;;;;0.57;0.57;;;20.00;52.70;;;;;;4857255;29;45101;-62
2022/10/24 06:10:00;;;;;;;2.50;0.98;;;20.10;52.80;;;;;;4852895;29;45328;-63
2022/10/24 06:12:25;;;;;;;3.00;1.35;;;20.00;53.40;;;;;;4838316;29;45329;-63
2022/10/24 06:14:55;;;;;;;2.80;1.33;;;20.00;54.50;;;;;;4833903;29;46166;-62
2022/10/24 06:17:20;;;;;;;5.78;1.60;;;20.00;55.30;;;;;;4834602;29;45111;-63
2022/10/24 06:19:47;;;;;;;14.13;1.70;;;20.00;55.80;;;;;;4850548;29;44929;-63
2022/10/24 06:22:13;;;;;;;10.02;1.80;;;19.90;56.20;;;;;;4850830;29;45251;-61
2022/10/24 06:24:39;;;;;;;16.05;1.73;;;19.90;57.00;;;;;;4855116;29;46009;-62
2022/10/24 06:27:05;;;;;;;6.57;1.45;;;19.70;57.50;;;;;;4838683;29;44949;-62
2022/10/24 06:29:31;;;;;;;13.18;2.42;;;19.70;58.90;;;;;;4852866;29;45066;-62
2022/10/24 06:31:57;;;;;;;5.65;1.50;;;19.60;58.30;;;;;;4841755;29;44805;-61
2022/10/24 06:34:22;;;;;;;5.45;1.50;;;19.60;58.40;;;;;;4853884;29;45478;-62
2022/10/24 06:36:48;;;;;;;5.53;1.60;;;19.60;58.70;;;;;;4848076;29;44947;-63
2022/10/24 06:39:13;;;;;;;10.15;2.08;;;19.50;58.90;;;;;;4848361;29;44875;-64
2022/10/24 06:41:39;;;;;;;13.40;1.92;;;19.50;59.00;;;;;;4848621;29;45225;-63
2022/10/24 06:44:05;;;;;;;12.18;1.65;;;19.50;58.90;;;;;;4823102;29;45252;-61
2022/10/24 06:46:30;;;;;;;4.22;1.50;;;19.50;59.10;;;;;;4837144;29;44945;-63
2022/10/24 06:48:56;;;;;;;9.88;1.85;;;19.60;59.10;;;;;;4819806;29;45196;-62
2022/10/24 06:51:22;;;;;;;5.53;1.77;;;19.60;59.20;;;;;;4840523;29;44704;-62
2022/10/24 06:53:47;;;;;;;5.88;1.70;;;19.60;59.20;;;;;;4854620;29;45635;-62
2022/10/24 06:56:13;;;;;;;7.80;1.67;;;19.60;59.20;;;;;;4827266;29;45148;-62
2022/10/24 06:58:39;;;;;;;9.35;1.95;;;19.60;59.30;;;;;;4852829;29;45310;-63
2022/10/24 07:01:09;;;;;;;8.38;1.58;;;19.60;59.40;;;;;;4851577;29;45045;-63
2022/10/24 07:03:34;;;;;;;10.65;1.80;;;19.50;59.80;;;;;;4820163;29;47004;-62
2022/10/24 07:06:24;;;;;;;5.80;1.60;;;19.50;59.90;;;;;;4855332;29;44883;-64
2022/10/24 07:08:50;;;;;;;7.63;1.90;;;19.50;60.30;;;;;;4837463;29;44720;-62
2022/10/24 07:11:16;;;;;;;8.68;1.42;;;19.50;60.00;;;;;;4853558;29;45000;-60
2022/10/24 07:13:41;;;;;;;9.43;1.60;;;19.50;60.00;;;;;;4837595;29;45011;-62
2022/10/24 07:16:07;;;;;;;8.32;1.30;;;19.50;60.10;;;;;;4851487;29;45182;-62
2022/10/24 07:18:32;;;;;;;9.82;1.20;;;19.50;60.00;;;;;;4834456;29;45016;-61
2022/10/24 07:21:06;;;;;;;4.85;1.45;;;19.50;59.90;;;;;;4839361;29;45123;-62
2022/10/24 07:23:32;;;;;;;5.15;1.33;;;19.50;60.20;;;;;;4836435;29;46421;-63
2022/10/24 07:26:04;;;;;;;9.95;1.40;;;19.50;60.10;;;;;;4858226;29;45209;-63
2022/10/24 07:28:30;;;;;;;7.10;1.20;;;19.50;60.10;;;;;;4839063;29;45165;-64
2022/10/24 07:30:55;;;;;;;8.77;1.50;;;19.50;59.80;;;;;;4855001;29;44892;-63
2022/10/24 07:33:21;;;;;;;7.78;1.40;;;19.60;59.80;;;;;;4848607;29;46023;-66
2022/10/24 07:35:46;;;;;;;9.80;1.40;;;19.60;60.20;;;;;;4860274;29;44956;-64
2022/10/24 07:38:12;;;;;;;8.80;1.67;;;19.70;59.40;;;;;;4851471;29;45037;-64
2022/10/24 07:40:37;;;;;;;5.43;1.23;;;19.70;59.20;;;;;;4833501;29;45308;-64
2022/10/24 07:43:03;;;;;;;8.65;1.38;;;19.80;59.00;;;;;;4855944;29;46102;-63
2022/10/24 07:45:31;;;;;;;8.65;1.55;;;19.80;59.00;;;;;;4856727;29;45064;-62
2022/10/24 07:47:58;;;;;;;7.63;1.60;;;19.80;58.80;;;;;;4851962;29;44998;-61
2022/10/24 07:50:23;;;;;;;3.70;1.10;;;19.80;58.60;;;;;;4837830;29;45247;-63
2022/10/24 07:52:49;;;;;;;7.65;1.65;;;19.80;58.50;;;;;;4858619;29;46217;-62
2022/10/24 07:55:14;;;;;;;7.88;1.27;;;19.90;58.50;;;;;;4837534;29;44752;-62
2022/10/24 07:57:40;;;;;;;5.78;1.13;;;19.90;58.30;;;;;;4848705;29;44974;-64
2022/10/24 08:00:06;;;;;;;6.15;1.42;;;19.90;58.20;;;;;;4833972;29;45266;-62
2022/10/24 08:02:32;;;;;;;5.38;1.23;;;19.90;58.10;;;;;;4859328;29;46587;-64
2022/10/24 08:04:57;;;;;;;3.47;1.33;;;20.00;58.00;;;;;;4849716;29;44725;-62
2022/10/24 08:07:23;;;;;;;11.63;1.52;;;20.00;57.90;;;;;;4842239;29;45237;-62
2022/10/24 08:09:50;;;;;;;7.35;1.58;;;20.00;57.80;;;;;;4857598;29;45194;-61
2022/10/24 08:12:15;;;;;;;5.18;1.35;;;20.00;57.60;;;;;;4859500;29;45138;-63
2022/10/24 08:14:41;;;;;;;4.57;1.50;;;20.10;57.60;;;;;;4830467;29;45046;-63
2022/10/24 08:17:07;;;;;;;5.65;1.35;;;20.10;57.50;;;;;;4837754;29;45066;-65
2022/10/24 08:19:32;;;;;;;7.88;1.02;;;20.10;57.40;;;;;;4836397;29;44992;-63
2022/10/24 08:21:58;;;;;;;4.82;1.15;;;20.20;57.30;;;;;;4860103;29;45960;-63
2022/10/24 08:24:23;;;;;;;4.72;1.13;;;20.20;57.20;;;;;;4827339;29;45001;-63
2022/10/24 08:26:49;;;;;;;3.83;1.05;;;20.20;57.10;;;;;;4851373;29;44968;-63
2022/10/24 08:29:20;;;;;;;4.63;1.00;;;20.20;57.00;;;;;;4852907;29;45033;-63
2022/10/24 08:31:48;;;;;;;5.55;1.23;;;20.30;56.90;;;;;;4849898;29;45220;-62
2022/10/24 08:34:15;;;;;;;4.45;1.40;;;20.30;56.80;;;;;;4835575;29;45280;-66
2022/10/24 08:36:41;;;;;;;6.03;1.00;;;20.30;56.70;;;;;;4838740;29;45328;-63
2022/10/24 08:39:07;;;;;;;6.07;1.05;;;20.30;56.70;;;;;;4831786;29;45709;-63
2022/10/24 08:41:32;;;;;;;4.28;1.40;;;20.30;56.60;;;;;;4830623;29;46459;-64
2022/10/24 08:43:59;;;;;;;6.72;1.20;;;20.30;56.60;;;;;;4854054;29;45075;-63
2022/10/24 08:46:34;;;;;;;5.05;1.42;;;20.40;56.60;;;;;;4821223;29;44673;-62
2022/10/24 08:49:10;;;;;;;5.18;1.30;;;20.40;56.50;;;;;;4845253;29;45189;-63
2022/10/24 08:51:40;;;;;;;6.60;1.40;;;20.40;56.50;;;;;;4843155;29;45734;-63
2022/10/24 08:54:12;;;;;;;4.95;1.30;;;20.40;56.40;;;;;;4829364;29;44895;-63
2022/10/24 08:56:38;;;;;;;4.53;1.25;;;20.40;56.40;;;;;;4844302;29;45001;-63
2022/10/24 08:59:03;;;;;;;10.90;1.15;;;20.40;56.40;;;;;;4839426;29;45099;-63
2022/10/24 09:01:37;;;;;;;5.85;1.30;;;20.40;56.30;;;;;;4841023;29;45117;-62
2022/10/24 09:04:05;;;;;;;3.13;0.90;;;20.50;56.30;;;;;;4823986;29;44643;-62
2022/10/24 09:06:31;;;;;;;5.13;1.45;;;20.50;56.20;;;;;;4822602;29;45250;-63
2022/10/24 09:09:14;;;;;;;6.00;1.10;;;20.50;56.20;;;;;;4849820;29;45191;-63
2022/10/24 09:11:40;;;;;;;;;;;20.50;56.20;;;;;;4837032;29;45422;-63
2022/10/24 09:14:14;;;;;;;3.10;0.90;;;20.50;56.20;;;;;;4845976;29;45203;-63
2022/10/24 09:16:41;;;;;;;6.53;1.25;;;20.50;56.10;;;;;;4830742;29;45136;-62
2022/10/24 09:19:12;;;;;;;4.18;1.27;;;20.50;55.90;;;;;;4837246;29;45040;-62
2022/10/24 09:21:38;;;;;;;2.08;0.93;;;20.60;56.00;;;;;;4826200;29;45179;-63
2022/10/24 09:24:05;;;;;;;4.95;0.98;;;20.60;55.90;;;;;;4801237;29;44922;-62
2022/10/24 09:26:30;;;;;;;5.18;1.30;;;20.60;55.80;;;;;;4817785;29;45336;-62
2022/10/24 09:28:56;;;;;;;4.22;1.10;;;20.60;55.70;;;;;;4824172;29;45185;-61
2022/10/24 09:31:23;;;;;;;4.50;1.10;;;20.60;55.70;;;;;;4838023;29;46265;-61
2022/10/24 09:33:50;;;;;;;3.33;1.17;;;20.60;55.70;;;;;;4835468;29;44781;-63
2022/10/24 09:36:17;;;;;;;3.92;1.08;;;20.70;55.70;;;;;;4836958;29;45142;-62
2022/10/24 09:38:43;;;;;;;3.60;1.10;;;20.60;55.60;;;;;;4842960;29;45854;-63
2022/10/24 09:41:24;;;;;;;3.63;1.10;;;20.70;55.60;;;;;;4840784;29;46093;-63
2022/10/24 09:43:54;;;;;;;6.22;1.67;;;20.70;55.50;;;;;;4853865;29;44963;-62
2022/10/24 09:46:27;;;;;;;4.78;1.48;;;20.70;55.50;;;;;;4846330;29;45291;-60
2022/10/24 09:49:01;;;;;;;3.67;1.50;;;20.70;55.40;;;;;;4840482;29;44992;-63
2022/10/24 09:51:39;;;;;;;4.03;1.30;;;20.70;55.90;;;;;;4841882;29;45575;-63
2022/10/24 09:54:17;;;;;;;6.50;0.98;;;20.80;55.30;;;;;;4840491;29;45042;-62
2022/10/24 09:56:43;;;;;;;3.20;0.88;;;20.80;55.30;;;;;;4852526;29;44881;-62
2022/10/24 09:59:25;;;;;;;4.78;0.77;;;20.80;55.90;;;;;;4856792;29;44804;-60
2022/10/24 10:01:51;;;;;;;2.58;0.90;;;20.80;55.80;;;;;;4849675;29;46420;-60
2022/10/24 10:04:17;;;;;;;3.38;0.85;;;20.80;55.20;;;;;;4832138;29;45092;-61
2022/10/24 10:06:47;;;;;;;3.25;1.00;;;20.80;55.20;;;;;;4827560;29;45663;-60
2022/10/24 10:09:15;;;;;;;4.53;0.90;;;20.80;55.20;;;;;;4824686;29;45556;-61
2022/10/24 10:11:40;;;;;;;2.72;1.10;;;20.80;55.30;;;;;;4817565;29;45893;-61
2022/10/24 10:14:19;;;;;;;5.35;0.95;;;20.80;55.40;;;;;;4839184;29;44725;-62
2022/10/24 10:16:44;;;;;;;2.92;0.95;;;20.70;55.30;;;;;;4844400;29;45215;-61
2022/10/24 10:19:17;;;;;;;1.58;0.88;;;20.70;55.30;;;;;;4839601;29;44998;-60
2022/10/24 10:22:20;;;;;;;3.17;1.00;;;20.70;55.30;;;;;;4844670;29;45875;-59
2022/10/24 10:24:46;;;;;;;4.07;1.17;;;20.80;55.30;;;;;;4825216;29;44879;-62
2022/10/24 10:27:23;;;;;;;1.70;0.60;;;20.70;55.30;;;;;;4840041;29;45089;-58
2022/10/24 10:30:06;;;;;;;4.80;1.10;;;20.70;55.20;;;;;;4851182;29;45106;-62
2022/10/24 10:32:36;;;;;;;2.38;0.98;;;20.70;55.20;;;;;;4841193;29;45245;-61
2022/10/24 10:35:27;;;;;;;2.63;1.10;;;20.70;55.20;;;;;;4826779;29;44625;-63
2022/10/24 10:38:24;;;;;;;2.00;0.63;;;20.80;55.20;;;;;;4831131;29;45494;-61
2022/10/24 10:40:53;;;;;;;2.85;1.00;;;20.70;55.10;;;;;;4860136;29;45115;-61
2022/10/24 10:44:01;;;;;;;2.95;1.20;;;20.70;55.10;;;;;;4819487;29;45959;-60
2022/10/24 10:46:42;;;;;;;3.58;0.93;;;20.70;55.10;;;;;;4840482;29;44834;-62
2022/10/24 10:49:40;;;;;;;2.22;1.10;;;20.70;55.10;;;;;;4853969;29;44915;-59
2022/10/24 10:52:11;;;;;;;3.00;0.70;;;20.80;55.10;;;;;;4813913;29;45002;-60
2022/10/24 10:55:02;;;;;;;3.95;1.20;;;20.80;55.00;;;;;;4842757;29;45912;-59
2022/10/24 10:57:42;;;;;;;8.85;0.90;;;20.80;54.90;;;;;;4855570;29;45041;-59
2022/10/24 11:00:10;;;;;;;5.60;1.00;;;20.80;54.90;;;;;;4843449;29;45331;-62
2022/10/24 11:03:34;;;;;;;3.47;1.00;;;20.80;54.90;;;;;;4842173;29;44858;-60
2022/10/24 11:06:37;;;;;;;2.60;1.00;;;20.80;54.80;;;;;;4804326;29;45978;-60
2022/10/24 11:09:20;;;;;;;4.93;1.00;;;20.90;54.80;;;;;;4848534;29;45131;-60
2022/10/24 11:12:30;;;;;;;1.42;0.80;;;20.80;54.70;;;;;;4843010;29;45176;-61
2022/10/24 11:15:14;;;;;;;3.88;0.90;;;20.90;54.70;;;;;;4866321;29;45804;-61
2022/10/24 11:17:49;;;;;;;2.10;0.90;;;20.90;54.70;;;;;;4859856;29;44968;-63
2022/10/24 11:20:23;;;;;;;3.25;1.00;;;20.90;54.70;;;;;;4856494;29;44719;-59
2022/10/24 11:23:01;;;;;;;2.30;0.90;;;20.90;54.70;;;;;;4846861;29;44954;-60
2022/10/24 11:25:43;;;;;;;3.22;1.05;;;20.90;54.60;;;;;;4827506;29;46012;-60
2022/10/24 11:28:16;;;;;;;1.52;0.80;;;20.90;54.60;;;;;;4846614;29;46083;-61
2022/10/24 11:30:59;;;;;;;4.95;1.02;;;21.00;54.60;;;;;;4843072;29;44816;-62
2022/10/24 11:33:26;;;;;;;3.42;0.90;;;21.00;54.60;;;;;;4850878;29;45233;-61
2022/10/24 11:36:00;;;;;;;3.58;1.20;;;20.90;54.60;;;;;;4827232;29;45064;-60
2022/10/24 11:38:26;;;;;;;5.20;0.90;;;21.00;54.60;;;;;;4847353;29;46662;-61
2022/10/24 11:40:54;;;;;;;1.98;1.00;;;21.00;54.50;;;;;;4825090;29;44858;-62
2022/10/24 11:43:27;;;;;;;3.88;1.15;;;21.00;54.50;;;;;;4842060;29;45096;-59
2022/10/24 11:45:59;;;;;;;3.38;1.00;;;21.00;54.50;;;;;;4822403;29;45197;-62
2022/10/24 11:48:34;;;;;;;2.05;0.93;;;21.00;54.50;;;;;;4840252;29;46179;-60
2022/10/24 11:51:21;;;;;;;3.03;0.90;;;21.00;54.40;;;;;;4838539;29;45006;-59
2022/10/24 11:53:51;;;;;;;2.63;1.10;;;21.00;54.50;;;;;;4827922;29;45608;-62
2022/10/24 11:56:33;;;;;;;3.58;1.08;;;21.00;54.50;;;;;;4846269;29;44947;-60
2022/10/24 11:59:05;;;;;;;1.48;0.95;;;21.10;54.60;;;;;;4840908;29;46087;-61
2022/10/24 12:01:33;;;;;;;2.40;1.02;;;21.00;54.40;;;;;;4837161;29;44928;-62
2022/10/24 12:04:20;;;;;;;1.63;0.90;;;21.10;54.50;;;;;;4850764;29;44746;-61
2022/10/24 12:07:05;;;;;;;2.92;0.88;;;21.10;54.40;;;;;;4841269;29;46108;-62
2022/10/24 12:09:42;;;;;;;4.10;0.95;;;21.10;54.40;;;;;;4855780;29;45387;-60
2022/10/24 12:12:31;;;;;;;3.90;1.10;;;21.10;54.40;;;;;;4855303;29;44917;-61
2022/10/24 12:15:15;;;;;;;3.67;1.52;;;21.10;54.40;;;;;;4821732;29;44831;-60
2022/10/24 12:17:56;;;;;;;3.63;1.00;;;21.10;54.40;;;;;;4826654;29;44957;-62
2022/10/24 12:20:22;;;;;;;2.97;0.70;;;21.10;54.30;;;;;;4853091;29;46062;-62
2022/10/24 12:22:47;;;;;;;1.30;1.00;;;21.10;54.30;;;;;;4841549;29;44901;-61
2022/10/24 12:25:34;;;;;;;3.35;1.40;;;21.20;54.30;;;;;;4826452;29;45199;-61
2022/10/24 12:28:38;;;;;;;1.80;0.80;;;21.20;54.30;;;;;;4842845;29;45477;-60
2022/10/24 12:31:14;;;;;;;8.57;0.88;;;21.20;54.30;;;;;;4804307;29;46487;-60
2022/10/24 12:33:40;;;;;;;2.53;1.10;;;21.20;54.30;;;;;;4804848;29;45094;-59
2022/10/24 12:36:06;;;;;;;4.05;1.15;;;21.20;54.30;;;;;;4822990;29;45347;-61
2022/10/24 12:38:31;;;;;;;4.40;1.13;;;21.20;54.30;;;;;;4836433;29;45140;-61
2022/10/24 12:41:10;;;;;;;2.88;1.17;;;21.30;54.20;;;;;;4861462;29;45036;-60
2022/10/24 12:43:43;;;;;;;3.22;1.27;;;21.40;54.10;;;;;;4849650;29;45063;-61
2022/10/24 12:46:14;;;;;;;3.63;1.00;;;21.50;53.90;;;;;;4851078;29;45134;-59
2022/10/24 12:48:43;;;;;;;3.70;1.42;;;21.60;53.70;;;;;;4852355;29;45301;-58
2022/10/24 12:51:30;;;;;;;4.00;1.10;;;21.60;53.60;;;;;;4857384;29;45003;-60
2022/10/24 12:54:01;;;;;;;2.47;1.00;;;21.70;53.40;;;;;;4836909;29;45225;-58
2022/10/24 12:56:29;;;;;;;6.07;1.30;;;21.80;53.30;;;;;;4836553;29;45166;-58
2022/10/24 12:59:30;;;;;;;4.40;1.30;;;21.80;53.20;;;;;;4856816;29;45045;-61
2022/10/24 13:02:31;;;;;;;3.17;1.10;;;21.90;53.10;;;;;;4811041;29;46310;-60
2022/10/24 13:05:30;;;;;;;2.35;1.05;;;21.90;52.90;;;;;;4838888;29;45258;-61
2022/10/24 13:08:14;;;;;;;2.90;1.05;;;21.90;52.80;;;;;;4826777;29;45133;-62
2022/10/24 13:11:06;;;;;;;4.10;1.00;;;22.00;52.80;;;;;;4855784;29;45072;-61
2022/10/24 13:13:41;;;;;;;4.13;1.30;;;22.00;52.70;;;;;;4864521;29;46024;-64
2022/10/24 13:16:33;;;;;;;2.47;1.10;;;22.00;52.60;;;;;;4865621;29;45281;-63
2022/10/24 13:19:05;;;;;;;3.25;1.23;;;22.00;52.50;;;;;;4842361;29;45003;-62
2022/10/24 13:21:56;;;;;;;2.47;1.10;;;22.10;52.50;;;;;;4841753;29;44996;-60
2022/10/24 13:24:38;;;;;;;2.63;1.08;;;22.10;52.50;;;;;;4853295;29;45114;-63
2022/10/24 13:27:07;;;;;;;3.83;1.20;;;22.10;52.40;;;;;;4832598;29;44936;-62
2022/10/24 13:29:32;;;;;;;3.92;1.40;;;22.10;52.40;;;;;;4856208;29;44897;-62
2022/10/24 13:32:04;;;;;;;5.07;1.10;;;22.10;52.40;;;;;;4855341;29;45012;-63
2022/10/24 13:34:42;;;;;;;3.83;1.10;;;22.10;52.30;;;;;;4860951;29;45695;-61
2022/10/24 13:37:21;;;;;;;2.80;0.90;;;22.10;52.30;;;;;;4830071;29;45182;-62
2022/10/24 13:39:51;;;;;;;3.20;1.35;;;22.20;52.30;;;;;;4823494;29;46227;-60
2022/10/24 13:42:31;;;;;;;3.67;1.08;;;22.20;52.20;;;;;;4839212;29;45262;-63
2022/10/24 13:45:03;;;;;;;3.40;1.10;;;22.20;52.30;;;;;;4839527;29;45972;-62
2022/10/24 13:47:40;;;;;;;2.33;1.00;;;22.20;52.20;;;;;;4860745;29;45054;-62
2022/10/24 13:50:12;;;;;;;3.15;1.02;;;22.20;52.10;;;;;;4827294;29;45211;-59
2022/10/24 13:52:40;;;;;;;2.38;1.02;;;22.20;52.10;;;;;;4827581;29;45380;-61
2022/10/24 13:55:21;;;;;;;3.75;1.40;;;22.20;52.10;;;;;;4858317;29;45131;-61
2022/10/24 13:57:48;;;;;;;3.67;1.23;;;22.20;52.10;;;;;;4847925;29;45254;-62
2022/10/24 14:00:26;;;;;;;2.67;1.10;;;22.20;52.10;;;;;;4863535;29;44777;-62
2022/10/24 14:02:51;;;;;;;3.22;1.08;;;22.20;52.20;;;;;;4856161;29;44926;-62
2022/10/24 14:05:19;;;;;;;2.10;1.00;;;22.30;52.20;;;;;;4840956;29;45117;-61
2022/10/24 14:07:45;;;;;;;2.90;1.10;;;22.20;52.10;;;;;;4819944;29;45451;-62
2022/10/24 14:10:12;;;;;;;2.63;0.98;;;22.30;52.10;;;;;;4833424;29;45578;-61
2022/10/24 14:12:38;;;;;;;3.47;1.20;;;22.20;52.00;;;;;;4842184;29;45195;-61
2022/10/24 14:15:05;;;;;;;2.42;0.95;;;22.20;52.00;;;;;;4811096;29;46128;-61
2022/10/24 14:17:34;;;;;;;2.22;1.20;;;22.30;52.10;;;;;;4846765;29;45505;-61
2022/10/24 14:20:09;;;;;;;3.67;1.10;;;22.30;52.10;;;;;;4855527;29;45703;-61
2022/10/24 14:22:38;;;;;;;4.13;1.30;;;22.30;52.10;;;;;;4855333;29;45997;-61
2022/10/24 14:25:05;;;;;;;4.22;1.25;;;22.30;52.10;;;;;;4841834;29;46810;-61
2022/10/24 14:27:30;;;;;;;4.60;1.20;;;22.30;52.00;;;;;;4855177;29;46280;-61
2022/10/24 14:30:03;;;;;;;2.23;0.90;;;22.30;52.00;;;;;;4860567;29;44882;-61
2022/10/24 14:32:29;;;;;;;2.95;1.10;;;22.30;52.00;;;;;;4855287;29;45069;-62
2022/10/24 14:34:55;;;;;;;3.75;1.13;;;22.30;52.10;;;;;;4835845;29;46309;-61
2022/10/24 14:37:26;;;;;;;3.97;1.13;;;22.30;52.00;;;;;;4823002;29;45644;-61
2022/10/24 14:39:52;;;;;;;2.85;1.00;;;22.30;52.00;;;;;;4844416;29;45839;-61
2022/10/24 14:42:18;;;;;;;1.95;1.00;;;22.30;52.00;;;;;;4818617;29;45294;-61
2022/10/24 14:44:46;;;;;;;5.23;1.30;;;22.30;52.10;;;;;;4841596;29;45240;-62
2022/10/24 14:47:27;;;;;;;2.70;1.20;;;22.30;52.00;;;;;;4842978;29;45005;-62
2022/10/24 14:49:52;;;;;;;3.58;1.05;;;22.30;52.00;;;;;;4855709;29;45050;-62
2022/10/24 14:52:19;;;;;;;2.50;0.93;;;22.30;52.00;;;;;;4822714;29;44805;-62
2022/10/24 14:55:01;;;;;;;2.97;1.00;;;22.30;52.00;;;;;;4837345;29;45365;-62
2022/10/24 14:57:27;;;;;;;3.08;1.02;;;22.30;52.00;;;;;;4825218;29;44812;-62
2022/10/24 14:59:54;;;;;;;2.50;1.20;;;22.30;52.00;;;;;;4822552;29;45118;-61
2022/10/24 15:02:20;;;;;;;2.53;0.90;;;22.30;52.00;;;;;;4815326;29;45242;-60
2022/10/24 15:04:46;;;;;;;2.83;1.30;;;22.30;52.00;;;;;;4820743;29;46079;-62
2022/10/24 15:07:31;;;;;;;2.13;1.00;;;22.30;52.00;;;;;;4838803;29;44988;-62
2022/10/24 15:10:01;;;;;;;2.40;1.30;;;22.30;52.00;;;;;;4833824;29;45114;-59
2022/10/24 15:12:37;;;;;;;1.30;0.82;;;22.30;51.90;;;;;;4835928;29;44895;-60
2022/10/24 15:15:22;;;;;;;2.67;0.95;;;22.30;52.00;;;;;;4837078;29;45067;-60
2022/10/24 15:18:07;;;;;;;3.67;1.00;;;22.30;52.00;;;;;;4839692;29;44957;-61
2022/10/24 15:20:35;;;;;;;2.05;0.90;;;22.40;52.60;;;;;;4832711;29;44986;-62
2022/10/24 15:23:00;;;;;;;2.85;1.00;;;22.40;52.00;;;;;;4821370;29;45115;-61
2022/10/24 15:25:33;;;;;;;3.53;0.98;;;22.40;52.00;;;;;;4838745;29;46132;-61
2022/10/24 15:27:59;;;;;;;2.55;1.20;;;22.30;51.90;;;;;;4838254;29;45046;-62
2022/10/24 15:30:30;;;;;;;3.40;1.00;;;22.40;52.00;;;;;;4837120;29;45192;-62
2022/10/24 15:32:57;;;;;;;3.65;1.00;;;22.40;51.90;;;;;;4836749;29;45128;-61
2022/10/24 15:35:22;;;;;;;2.40;1.20;;;22.40;51.90;;;;;;4833563;29;45018;-61
2022/10/24 15:38:12;;;;;;;2.97;0.93;;;22.40;52.00;;;;;;4835358;29;45135;-61
2022/10/24 15:40:37;;;;;;;1.88;0.85;;;22.40;52.00;;;;;;4834679;29;45072;-61
2022/10/24 15:43:03;;;;;;;2.17;0.85;;;22.40;52.00;;;;;;4843783;29;45069;-59
2022/10/24 15:45:28;;;;;;;2.13;0.90;;;22.40;52.00;;;;;;4839796;29;45117;-60
2022/10/24 15:47:54;;;;;;;4.07;1.23;;;22.40;51.90;;;;;;4834945;29;45148;-59
2022/10/24 15:50:21;;;;;;;3.17;0.80;;;22.40;52.00;;;;;;4841342;29;45238;-59
2022/10/24 15:52:52;;;;;;;2.67;1.13;;;22.40;52.00;;;;;;4836038;29;44961;-60
2022/10/24 15:55:19;;;;;;;2.70;0.98;;;22.40;52.00;;;;;;4838372;29;44976;-61
2022/10/24 15:57:45;;;;;;;2.83;1.00;;;22.40;51.90;;;;;;4828918;29;45092;-61
2022/10/24 16:00:12;;;;;;;2.63;1.20;;;22.40;51.90;;;;;;4854870;29;44992;-61
2022/10/24 16:02:39;;;;;;;2.30;1.10;;;22.40;51.90;;;;;;4858382;29;45929;-61
2022/10/24 16:05:05;;;;;;;2.60;1.10;;;22.40;51.90;;;;;;4831079;29;45192;-61